Mesquite, Nevada Weather observations

Data are for observation ending at time listed.
 Day   Time    Ave.   Ave.  Ave.  Vector   Max.   Stn.    Total    Solar   Ave.  
  of    of     Air    Rel.  Wind   Wind    Wind   Baro.  Precip.   Rad.    Soil  
Year   Day     Temp.  Hum.  Speed  Dir.    Gust   Pres.                    Temp. 
2017   (PST)    F      %     mph   deg.    mph     mb.     in.     W/m2     F   
------------------------------------------------------------------------------
  17   20:30   40.4    64    3.9   107      4.7   953.7    0.00       0    54.3
  17   20:40   39.9    63    2.3   101      4.2   953.7    0.00       0    54.1
  17   20:50   39.7    62    1.9    41      3.4   953.9    0.00       0    54.0
  17   21:00   39.8    63    3.4    50      5.3   954.0    0.00       0    53.8
  17   21:10   39.7    64    4.3    70      5.6   954.0    0.00       0    53.7
  17   21:20   40.1    61    3.4    64      4.4   954.1    0.00       0    53.5
  17   21:30   40.4    58    1.5    62      3.3   954.1    0.00       0    53.3
  17   21:40   40.6    58    1.9   351      3.1   954.2    0.00       0    53.2
  17   21:50   40.4    59    0.6   296      2.0   954.3    0.00       0    53.0
  17   22:00   40.2    58    2.5    69      4.5   954.2    0.00       0    52.9
  17   22:10   39.5    59    2.5    90      4.3   954.3    0.00       0    52.8
  17   22:20   38.7    65    4.3   104      5.9   954.4    0.00       0    52.6
  17   22:30   37.8    68    6.1    85      7.6   954.5    0.00       0    52.5
  17   22:40   37.2    70    4.2    65      5.3   954.6    0.00       0    52.3
  17   22:50   37.2    67    2.8    49      3.9   954.6    0.00       0    52.2
  17   23:00   37.6    62    4.3    48      5.3   954.6    0.00       0    52.0
  17   23:10   38.8    57    4.6    78      5.0   954.6    0.00       0    51.9
  17   23:20   38.8    58    4.6    88      5.6   954.5    0.00       0    51.7
  17   23:30   37.4    62    4.0    70      4.5   954.4    0.00       0    51.6
  17   23:40   36.3    65    3.8    66      4.7   954.2    0.00       0    51.5
  17   23:50   35.8    69    3.2    57      4.2   954.1    0.00       0    51.4
  18    0:00   35.9    68    3.6    13      5.7   954.0    0.00       0    51.2
  18    0:10   38.5    55    3.5   348      5.4   954.0    0.00       0    51.1
  18    0:20   40.1    51    1.6   336      3.7   954.0    0.00       0    51.0
  18    0:30   39.1    54    1.5    50      4.0   954.0    0.00       0    50.9
  18    0:40   36.2    66    5.0    98      7.0   954.0    0.00       0    50.8
  18    0:50   34.3    76    4.9    97      6.6   954.0    0.00       0    50.6
  18    1:00   34.1    77    3.8    96      6.6   954.1    0.00       1    50.5
  18    1:10   34.3    75    5.1   100      6.6   954.1    0.00       0    50.4
  18    1:20   34.4    75    4.8    96      6.6   954.1    0.00       0    50.3
  18    1:30   34.7    74    1.2   326      3.3   954.3    0.00       0    50.1
  18    1:40   35.3    70    1.3   143      2.4   954.3    0.00       1    50.0
  18    1:50   35.9    68    2.0   133      2.9   954.4    0.00       1    49.9
  18    2:00   35.9    67    2.8   101      5.2   954.3    0.00       0    49.8
  18    2:10   33.7    74    5.0    72      6.1   954.3    0.00       0    49.7
  18    2:20   32.9    77    3.1    24      4.2   954.3    0.00       0    49.6
  18    2:30   34.3    70    3.0   319      4.9   954.2    0.00       0    49.5
  18    2:40   35.7    65    4.0   297      5.6   954.2    0.00       0    49.4
  18    2:50   36.7    62    4.5   295      7.1   954.2    0.00       0    49.3
  18    3:00   36.8    61    2.5   311      4.4   954.4    0.00       0    49.1
  18    3:10   33.8    73    4.2   139      4.9   954.5    0.00       1    49.0
  18    3:20   32.4    79    4.4   102      5.1   954.6    0.00       0    48.9
  18    3:30   31.5    82    3.9    78      4.7   954.5    0.00       0    48.8
  18    3:40   31.7    82    4.4    64      5.0   954.4    0.00       0    48.7
  18    3:50   32.2    81    3.7    75      4.8   954.3    0.00       0    48.6
  18    4:00   32.4    78    3.8    48      4.7   954.1    0.00       0    48.5
  18    4:10   32.6    77    2.0    36      3.3   954.1    0.00       0    48.4
  18    4:20   34.1    72    2.5   360      3.9   954.1    0.00       0    48.3
  18    4:30   34.6    69    2.8   339      3.7   954.1    0.00       0    48.2
  18    4:40   34.4    69    2.3    25      3.4   954.1    0.00       0    48.1
  18    4:50   34.4    69    2.3    67      3.7   954.0    0.00       0    48.0
  18    5:00   33.4    73    1.8   174      3.1   954.0    0.00       0    47.9
  18    5:10   32.9    76    1.8   194      2.6   954.0    0.00       0    47.8
  18    5:20   33.1    76    1.1   154      2.4   953.9    0.00       0    47.8
  18    5:30   32.5    77    3.6   107      4.8   954.0    0.00       0    47.7
  18    5:40   31.2    80    4.3    84      5.3   954.1    0.00       0    47.6
  18    5:50   30.4    83    3.6    83      4.8   954.1    0.00       0    47.5
  18    6:00   30.4    83    3.4    55      4.3   954.1    0.00       0    47.4
  18    6:10   30.3    84    3.0    37      3.7   953.7    0.00       0    47.3
  18    6:20   30.8    83    1.1    25      2.3   953.4    0.00       0    47.2
  18    6:30   32.1    77    0.1    71      0.7   953.3    0.00       0    47.1
  18    6:40   33.5    71    1.2   281      3.4   953.6    0.00       0    47.0
  18    6:50   33.6    71    1.0   219      2.6   953.3    0.00       3    47.0
  18    7:00   33.4    72    0.7     4      1.8   953.2    0.00       3    46.9
  18    7:10   32.0    75    0.2    92      0.9   953.4    0.00       7    46.8
  18    7:20   31.3    78    1.3   130      2.6   954.2    0.00       9    46.7
  18    7:30   32.0    78    1.5    72      2.3   954.8    0.00      47    46.7
  18    7:40   34.8    73    1.6    57      2.5   955.1    0.00      83    46.5
  18    7:50   35.6    71    1.1    51      2.2   955.2    0.00     104    46.5
  18    8:00   36.5    69    1.5    49      2.9   955.3    0.00     126    46.4
  18    8:10   37.2    67    2.7    55      3.6   955.3    0.00     147    46.4
  18    8:20   38.7    64    2.0    42      3.8   955.3    0.00     168    46.4
  18    8:30   41.0    59    0.8    34      2.1   955.5    0.00     190    46.5
  18    8:40   41.7    56    1.9   304      4.2   955.5    0.00     211    46.5
  18    8:50   41.2    55    2.6   296      3.7   955.4    0.00     230    46.7
  18    9:00   41.5    55    4.1   293      5.6   955.3    0.00     250    46.8
  18    9:10   42.4    53    3.3   287      4.3   955.2    0.00     269    47.0
  18    9:20   45.3    48    0.6   239      2.0   955.3    0.00     287    47.1
  18    9:30   46.8    45    1.2   206      2.9   955.4    0.00     305    47.4
  18    9:40   47.4    45    1.8   178      4.1   955.3    0.00     321    47.6
  18    9:50   49.0    42    0.9   142      3.1   955.3    0.00     336    47.9
  18   10:00   47.6    44    1.9   263      4.4   955.3    0.00     350    48.2
  18   10:10   47.8    44    1.7   223      3.3   955.3    0.00     364    48.5
  18   10:20   47.7    43    2.4   262      4.6   955.3    0.00     376    48.9
  18   10:30   48.5    43    2.1   259      5.0   955.2    0.00     387    49.2
  18   10:40   50.3    40    0.9   168      3.3   955.1    0.00     397    49.6
  18   10:50   51.6    38    1.6   132      4.2   954.9    0.00     407    50.0
  18   11:00   51.9    37    1.2   109      4.7   954.6    0.00     415    50.4
  18   11:10   51.1    39    1.9   158      4.5   954.2    0.00     420    50.8
  18   11:20   51.8    38    1.3   238      4.2   953.9    0.00     425    51.2
  18   11:30   51.7    38    1.9   249      4.6   953.6    0.00     429    51.6
  18   11:40   51.2    38    2.5   269      3.9   953.3    0.00     429    52.1
  18   11:50   51.5    37    1.5   260      3.7   953.1    0.00     431    52.5
  18   12:00   52.1    36    3.2   269      6.6   952.8    0.00     431    52.9
  18   12:10   51.6    37    1.7   254      4.2   952.6    0.00     433    53.3
  18   12:20   52.5    36    1.4   226      5.4   952.4    0.00     428    53.8
  18   12:30   53.2    34    1.1   250      4.5   952.2    0.00     429    54.2
  18   12:40   53.5    34    2.4    48      3.8   951.9    0.00     422    54.6
  18   12:50   54.1    33    0.7   107      3.4   951.7    0.00     410    55.0
  18   13:00   54.3    33    2.1    65      4.6   951.5    0.00     411    55.4
  18   13:10   55.0    32    1.8   138      4.4   951.2    0.00     402    55.9
  18   13:20   55.6    31    1.8    87      4.7   951.0    0.00     398    56.2
  18   13:30   55.1    31    2.8   268      5.8   950.7    0.00     391    56.6
  18   13:40   55.3    31    3.2   251      6.4   950.5    0.00     290    56.9
  18   13:50   55.0    32    3.9   254      7.4   950.3    0.00     254    57.3
  18   14:00   54.9    32    4.0   280      6.2   950.4    0.00     303    57.5
  18   14:10   55.2    32    2.7   295      5.8   950.4    0.00     313    57.8
  18   14:20   55.9    33    1.9   341      4.5   950.1    0.00     277    58.0
  18   14:30   55.9    32    1.0    50      2.4   949.8    0.00     141    58.1
  18   14:40   55.9    32    0.7    62      2.6   949.5    0.00     143    58.3
  18   14:50   56.0    32    1.2    17      2.8   949.3    0.00     136    58.4
  18   15:00   55.7    31    1.6    85      3.9   949.0    0.00     115    58.4
  18   15:10   55.4    31    1.8    62      3.2   948.7    0.00     112    58.5
  18   15:20   55.7    30    0.9    54      2.3   948.6    0.00     101    58.4
  18   15:30   55.6    30    0.4    26      1.4   948.5    0.00      83    58.3
  18   15:40   55.3    31    2.2   289      4.5   948.6    0.00      63    58.2
  18   15:50   54.8    33    3.2   262      5.6   948.7    0.00      55    58.2
  18   16:00   54.6    34    2.5   252      4.7   948.8    0.00      51    58.1
  18   16:10   54.5    35    1.9   271      3.5   948.8    0.00      48    57.9
  18   16:20   54.5    35    0.8    29      2.3   948.8    0.00      37    57.8
  18   16:30   53.5    38    2.2   146      3.1   948.7    0.00      20    57.7
  18   16:40   52.6    40    1.9   201      3.4   948.8    0.00      14    57.5
  18   16:50   52.1    40    1.3   213      3.4   948.8    0.00       6    57.3
  18   17:00   51.6    41    1.5   214      3.1   948.8    0.00       1    57.1
  18   17:10   51.6    40    2.4   248      3.9   948.9    0.00       0    56.9
  18   17:20   51.4    41    3.1   254      4.6   949.1    0.00       0    56.8
  18   17:30   51.3    42    2.9   257      4.4   949.0    0.00       0    56.6
  18   17:40   51.0    42    3.1   252      4.2   949.1    0.00       0    56.4
  18   17:50   50.5    43    1.3   255      2.8   949.0    0.00       0    56.2
  18   18:00   47.9    50    3.6    92      4.2   949.0    0.00       0    56.0
  18   18:10   45.3    57    2.9    64      3.5   948.8    0.00       0    55.8
  18   18:20   44.2    62    3.8    65      5.0   948.8    0.00       0    55.6
  18   18:30   43.8    63    3.2    45      4.7   948.8    0.00       0    55.5
  18   18:40   43.9    62    2.7    26      3.8   948.8    0.00       0    55.3
  18   18:50   43.7    62    3.0    37      4.7   949.0    0.00       0    55.1
  18   19:00   43.6    62    3.0    36      4.5   949.0    0.00       0    55.0
  18   19:10   43.5    62    5.0    59      5.6   948.9    0.00       0    54.8
  18   19:20   43.3    62    4.5    62      5.5   948.8    0.00       0    54.6
  18   19:30   43.2    63    4.4    60      5.3   948.8    0.00       0    54.4
  18   19:40   43.3    62    2.7    42      3.9   948.8    0.00       0    54.3
  18   19:50   43.6    61    1.6    10      2.5   948.6    0.00       0    54.1
  18   20:00   44.1    59    1.4   344      2.4   948.6    0.00       0    54.0
  18   20:10   44.7    58    1.5   313      3.3   948.7    0.00       0    53.9
  18   20:20   43.4    63    3.4    74      4.7   948.4    0.00       0    53.7

Return to Mesquite, Nevada graphs page.


Western Regional Climate Center,wrcc@dri.edu